createdAt,value
2022-11-23T00:03:16.267Z,158.27
2022-11-23T00:18:18.157Z,149.00
2022-11-23T00:33:20.163Z,147.10
2022-11-23T00:48:22.041Z,142.27
2022-11-23T01:03:23.908Z,126.30
2022-11-23T01:18:26.520Z,115.30
2022-11-23T01:33:28.471Z,100.03
2022-11-23T01:48:40.999Z,116.75
2022-11-23T02:03:48.215Z,117.15
2022-11-23T02:18:51.336Z,117.85
2022-11-23T02:33:53.239Z,109.32
2022-11-23T02:48:55.083Z,111.95
2022-11-23T03:03:56.965Z,110.63
2022-11-23T03:18:58.809Z,102.30
2022-11-23T03:34:00.790Z,104.43
2022-11-23T03:49:02.825Z,105.07
2022-11-23T04:04:04.875Z,106.40
2022-11-23T04:19:06.841Z,102.32
2022-11-23T04:34:08.774Z,107.15
2022-11-23T04:49:10.664Z,99.28
2022-11-23T05:04:17.589Z,96.72
2022-11-23T05:19:19.910Z,92.77
2022-11-23T05:34:21.797Z,84.88
2022-11-23T05:49:23.782Z,85.10
2022-11-23T06:04:25.777Z,91.40
2022-11-23T06:19:30.612Z,90.63
2022-11-23T06:34:32.717Z,95.15
2022-11-23T06:49:34.625Z,94.53
2022-11-23T07:04:36.533Z,86.47
2022-11-23T07:19:38.507Z,88.90
2022-11-23T07:34:40.476Z,89.32
2022-11-23T07:49:42.382Z,88.65
2022-11-23T08:04:45.017Z,80.38
2022-11-23T08:19:46.876Z,75.13
2022-11-23T08:34:48.781Z,76.70
2022-11-23T08:49:50.640Z,85.50
2022-11-23T09:04:52.592Z,90.95
2022-11-23T09:19:54.546Z,87.05
2022-11-23T09:34:56.379Z,94.00
2022-11-23T09:50:08.267Z,89.80
2022-11-23T10:05:17.418Z,84.95
2022-11-23T10:20:48.621Z,82.57
2022-11-23T10:35:50.480Z,84.47
2022-11-23T10:50:52.442Z,79.43
2022-11-23T11:06:13.377Z,79.93
2022-11-23T11:21:32.286Z,88.20
2022-11-23T11:36:46.002Z,74.68
2022-11-23T11:52:10.526Z,83.82
2022-11-23T12:07:22.630Z,75.60
2022-11-23T12:22:24.463Z,81.68
2022-11-23T12:37:58.551Z,74.28
2022-11-23T12:53:31.337Z,70.90
2022-11-23T13:09:04.452Z,73.35
2022-11-23T13:24:25.729Z,88.18
2022-11-23T13:39:56.459Z,94.22
2022-11-23T13:55:09.420Z,87.53
2022-11-23T14:10:21.129Z,97.25
2022-11-23T14:25:34.732Z,88.32
2022-11-23T14:41:03.488Z,89.55
2022-11-23T14:56:05.928Z,86.57
2022-11-23T15:11:16.928Z,86.68
2022-11-23T15:26:46.951Z,86.03
2022-11-23T15:41:48.488Z,88.03
2022-11-23T15:56:55.255Z,101.03
2022-11-23T16:11:57.477Z,99.55
2022-11-23T16:26:59.664Z,108.97
2022-11-23T16:42:02.674Z,101.25
2022-11-23T16:57:04.957Z,120.63
2022-11-23T17:12:11.996Z,114.05
2022-11-23T17:27:24.906Z,119.55
2022-11-23T17:42:26.781Z,95.28
2022-11-23T17:57:28.670Z,122.80
2022-11-23T18:12:30.797Z,115.47
2022-11-23T18:27:32.674Z,114.05
2022-11-23T18:42:34.530Z,118.22
2022-11-23T18:57:36.415Z,124.72
2022-11-23T19:12:38.359Z,120.80
2022-11-23T19:27:40.768Z,123.80
2022-11-23T19:42:43.352Z,111.13
2022-11-23T19:57:45.260Z,118.47
2022-11-23T20:12:47.139Z,122.88
2022-11-23T20:27:49.020Z,125.97
2022-11-23T20:42:50.876Z,139.20
2022-11-23T20:57:53.624Z,155.27
2022-11-23T21:13:14.055Z,152.23
2022-11-23T21:28:16.036Z,129.02
2022-11-23T21:43:17.914Z,131.25
2022-11-23T21:58:19.878Z,117.20
2022-11-23T22:13:22.270Z,117.05
2022-11-23T22:28:24.210Z,100.70
2022-11-23T22:43:26.361Z,113.18
2022-11-23T22:58:29.327Z,105.05
2022-11-23T23:13:32.711Z,108.78
2022-11-23T23:28:35.301Z,106.57
2022-11-23T23:43:37.300Z,107.70
2022-11-23T23:58:39.265Z,90.15
